createdAt,value
2022-09-30T00:01:03.894Z,6.00
2022-09-30T00:03:31.562Z,6.02
2022-09-30T00:05:59.241Z,6.18
2022-09-30T00:08:26.813Z,6.17
2022-09-30T00:11:01.777Z,5.94
2022-09-30T00:13:29.248Z,5.82
2022-09-30T00:15:56.760Z,5.81
2022-09-30T00:18:25.589Z,5.75
2022-09-30T00:20:54.061Z,5.80
2022-09-30T00:23:21.760Z,5.96
2022-09-30T00:25:49.294Z,6.06
2022-09-30T00:28:16.774Z,6.10
2022-09-30T00:30:44.244Z,6.17
2022-09-30T00:33:11.691Z,6.06
2022-09-30T00:35:40.571Z,5.97
2022-09-30T00:38:08.069Z,5.95
2022-09-30T00:40:35.580Z,6.21
2022-09-30T00:43:03.047Z,6.22
2022-09-30T00:45:31.529Z,6.04
2022-09-30T00:48:04.856Z,5.68
2022-09-30T00:50:36.722Z,5.67
2022-09-30T00:53:11.382Z,5.81
2022-09-30T00:55:52.751Z,5.80
2022-09-30T00:58:26.284Z,5.69
2022-09-30T01:00:53.820Z,5.65
2022-09-30T01:03:23.125Z,5.65
2022-09-30T01:05:52.028Z,5.57
2022-09-30T01:08:21.986Z,5.65
2022-09-30T01:10:49.437Z,5.53
2022-09-30T01:13:19.143Z,5.48
2022-09-30T01:15:59.809Z,5.49
2022-09-30T01:18:31.905Z,5.51
2022-09-30T01:21:50.273Z,5.59
2022-09-30T01:24:30.547Z,5.44
2022-09-30T01:27:20.534Z,5.34
2022-09-30T01:30:10.787Z,5.38
2022-09-30T01:33:00.876Z,5.21
2022-09-30T01:35:37.547Z,5.20
2022-09-30T01:38:13.240Z,5.23
2022-09-30T01:40:44.819Z,5.17
2022-09-30T01:43:14.931Z,5.31
2022-09-30T01:45:44.433Z,5.21
2022-09-30T01:48:19.780Z,5.23
2022-09-30T01:50:50.769Z,5.07
2022-09-30T01:53:24.764Z,4.95
2022-09-30T01:55:54.962Z,4.95
2022-09-30T01:58:28.795Z,5.06
2022-09-30T02:00:59.459Z,5.02
2022-09-30T02:03:31.142Z,5.01
2022-09-30T02:06:03.216Z,4.87
2022-09-30T02:08:34.341Z,4.94
2022-09-30T02:11:06.066Z,4.86
2022-09-30T02:13:35.908Z,4.97
2022-09-30T02:16:12.716Z,4.98
2022-09-30T02:18:44.740Z,5.06
2022-09-30T02:21:13.595Z,5.04
2022-09-30T02:23:43.775Z,5.00
2022-09-30T02:26:14.517Z,5.04
2022-09-30T02:28:43.476Z,4.92
2022-09-30T02:31:12.799Z,4.94
2022-09-30T02:33:44.986Z,4.79
2022-09-30T02:36:17.408Z,4.56
2022-09-30T02:38:46.274Z,4.54
2022-09-30T02:41:16.368Z,4.59
2022-09-30T02:43:43.935Z,4.70
2022-09-30T02:46:16.234Z,4.64
2022-09-30T02:48:48.568Z,4.53
2022-09-30T02:51:19.219Z,4.49
2022-09-30T02:53:52.560Z,4.65
2022-09-30T02:56:25.834Z,4.73
2022-09-30T02:58:53.973Z,4.46
2022-09-30T03:01:21.561Z,4.35
2022-09-30T03:03:51.746Z,4.44
2022-09-30T03:06:19.473Z,4.60
2022-09-30T03:08:47.189Z,4.77
2022-09-30T03:11:16.621Z,4.85
2022-09-30T03:14:20.447Z,4.85
2022-09-30T03:17:19.577Z,4.52
2022-09-30T03:20:04.438Z,4.55
2022-09-30T03:22:47.054Z,4.61
2022-09-30T03:25:22.393Z,4.65
2022-09-30T03:27:57.045Z,4.51
2022-09-30T03:30:26.917Z,4.37
2022-09-30T03:33:04.567Z,4.20
2022-09-30T03:35:41.405Z,4.34
2022-09-30T03:38:13.733Z,4.32
2022-09-30T03:40:44.761Z,4.31
2022-09-30T03:43:20.014Z,4.22
2022-09-30T03:45:52.200Z,4.15
2022-09-30T03:48:20.432Z,4.15
2022-09-30T03:50:49.371Z,4.15
2022-09-30T03:53:17.167Z,4.12
2022-09-30T03:55:47.682Z,4.23
2022-09-30T03:58:15.624Z,4.28
2022-09-30T04:00:48.532Z,4.17
2022-09-30T04:03:16.586Z,3.96
2022-09-30T04:05:44.429Z,3.98
2022-09-30T04:08:13.272Z,4.08
2022-09-30T04:10:41.999Z,4.01
2022-09-30T04:13:09.849Z,4.11
2022-09-30T04:15:37.717Z,4.13
2022-09-30T04:18:06.061Z,4.35
2022-09-30T04:20:33.799Z,4.44
2022-09-30T04:23:01.828Z,4.29
2022-09-30T04:25:30.838Z,4.22
2022-09-30T04:27:58.560Z,4.32
2022-09-30T04:30:30.144Z,4.29
2022-09-30T04:33:00.290Z,3.91
2022-09-30T04:35:30.049Z,3.84
2022-09-30T04:37:57.607Z,4.02
2022-09-30T04:40:25.369Z,3.99
2022-09-30T04:42:58.175Z,3.86
2022-09-30T04:45:25.928Z,3.86
2022-09-30T04:47:53.492Z,3.99
2022-09-30T04:50:21.178Z,4.00
2022-09-30T04:52:48.849Z,3.95
2022-09-30T04:55:16.497Z,3.96
2022-09-30T04:57:45.317Z,3.97
2022-09-30T05:00:14.467Z,3.96
2022-09-30T05:02:44.103Z,3.65
2022-09-30T05:05:11.767Z,3.55
2022-09-30T05:07:39.266Z,3.56
2022-09-30T05:10:08.427Z,3.69
2022-09-30T05:12:36.489Z,3.54
2022-09-30T05:15:04.630Z,3.53
2022-09-30T05:17:33.669Z,3.49
2022-09-30T05:20:01.823Z,3.70
2022-09-30T05:22:29.355Z,3.75
2022-09-30T05:24:57.055Z,3.64
2022-09-30T05:27:25.304Z,3.54
2022-09-30T05:29:52.814Z,3.60
2022-09-30T05:32:21.266Z,3.64
2022-09-30T05:34:50.302Z,3.52
2022-09-30T05:37:17.790Z,3.64
2022-09-30T05:39:45.353Z,3.72
2022-09-30T05:42:14.139Z,3.59
2022-09-30T05:44:41.795Z,3.38
2022-09-30T05:47:11.507Z,3.40
2022-09-30T05:49:40.142Z,3.41
2022-09-30T05:52:09.013Z,3.63
2022-09-30T05:54:36.516Z,3.63
2022-09-30T05:57:05.265Z,3.64
2022-09-30T05:59:32.781Z,4.49
2022-09-30T06:02:00.435Z,4.91
2022-09-30T06:04:27.989Z,4.96
2022-09-30T06:06:55.717Z,5.01
2022-09-30T06:09:24.921Z,5.10
2022-09-30T06:11:53.018Z,4.88
2022-09-30T06:14:22.530Z,5.24
2022-09-30T06:16:50.159Z,5.49
2022-09-30T06:19:17.823Z,5.56
2022-09-30T06:21:45.467Z,5.51
2022-09-30T06:24:14.671Z,5.74
2022-09-30T06:27:11.934Z,5.75
2022-09-30T06:29:39.668Z,5.84
2022-09-30T06:32:07.659Z,5.88
2022-09-30T06:34:35.276Z,5.85
2022-09-30T06:37:02.753Z,5.94
2022-09-30T06:39:30.250Z,5.93
2022-09-30T06:41:59.081Z,6.08
2022-09-30T06:44:26.618Z,6.14
2022-09-30T06:46:54.565Z,6.28
2022-09-30T06:49:22.386Z,6.25
2022-09-30T06:51:51.467Z,6.28
2022-09-30T06:54:21.011Z,6.40
2022-09-30T06:56:48.786Z,6.43
2022-09-30T06:59:17.814Z,6.46
2022-09-30T07:01:46.278Z,6.53
2022-09-30T07:04:13.993Z,6.60
2022-09-30T07:06:41.797Z,6.61
2022-09-30T07:09:10.704Z,6.67
2022-09-30T07:11:38.439Z,6.75
2022-09-30T07:14:06.523Z,6.86
2022-09-30T07:16:35.813Z,6.89
2022-09-30T07:19:03.673Z,6.72
2022-09-30T07:21:31.774Z,6.67
2022-09-30T07:24:00.110Z,6.70
2022-09-30T07:26:28.315Z,6.80
2022-09-30T07:28:55.888Z,6.81
2022-09-30T07:31:33.119Z,7.09
2022-09-30T07:34:03.398Z,7.27
2022-09-30T07:36:33.509Z,7.36
2022-09-30T07:39:05.482Z,7.34
2022-09-30T07:41:35.690Z,7.46
2022-09-30T07:44:03.323Z,7.52
2022-09-30T07:46:33.248Z,7.41
2022-09-30T07:49:03.946Z,7.42
2022-09-30T07:51:35.797Z,7.54
2022-09-30T07:54:05.944Z,7.47
2022-09-30T07:56:57.836Z,7.51
2022-09-30T07:59:22.506Z,7.49
2022-09-30T08:01:50.799Z,7.55
2022-09-30T08:04:19.658Z,7.59
2022-09-30T08:06:50.524Z,7.66
2022-09-30T08:09:20.167Z,7.71
2022-09-30T08:11:47.980Z,7.80
2022-09-30T08:14:17.240Z,7.99
2022-09-30T08:16:45.288Z,7.99
2022-09-30T08:19:15.861Z,8.05
2022-09-30T08:21:43.965Z,8.09
2022-09-30T08:24:13.412Z,8.20
2022-09-30T08:26:41.314Z,8.38
2022-09-30T08:29:12.353Z,8.43
2022-09-30T08:31:42.309Z,8.53
2022-09-30T08:34:10.154Z,8.54
2022-09-30T08:36:37.660Z,8.86
2022-09-30T08:39:05.870Z,8.80
2022-09-30T08:41:45.286Z,8.95
2022-09-30T08:44:25.469Z,8.98
2022-09-30T08:46:58.473Z,9.14
2022-09-30T08:49:38.496Z,9.21
2022-09-30T08:52:15.999Z,9.22
2022-09-30T08:54:53.892Z,9.26
2022-09-30T08:57:23.349Z,9.42
2022-09-30T08:59:53.960Z,9.43
2022-09-30T09:02:24.311Z,9.58
2022-09-30T09:04:52.719Z,9.51
2022-09-30T09:07:36.893Z,9.60
2022-09-30T09:10:15.245Z,9.63
2022-09-30T09:12:49.489Z,9.73
2022-09-30T09:15:31.810Z,9.84
2022-09-30T09:18:31.504Z,9.92
2022-09-30T09:21:00.721Z,9.96
2022-09-30T09:23:29.109Z,10.11
2022-09-30T09:25:56.636Z,10.18
2022-09-30T09:28:30.742Z,10.25
2022-09-30T09:30:59.911Z,10.38
2022-09-30T09:33:30.519Z,10.49
2022-09-30T09:36:08.656Z,10.52
2022-09-30T09:38:41.675Z,10.59
2022-09-30T09:41:18.402Z,10.59
2022-09-30T09:43:53.790Z,10.68
2022-09-30T09:46:26.203Z,10.78
2022-09-30T09:49:30.920Z,10.83
2022-09-30T09:52:12.357Z,10.86
2022-09-30T09:54:42.176Z,10.95
2022-09-30T09:57:10.814Z,11.01
2022-09-30T09:59:56.143Z,11.06
2022-09-30T10:02:25.049Z,11.09
2022-09-30T10:04:59.880Z,11.18
2022-09-30T10:07:29.927Z,11.43
2022-09-30T10:10:09.160Z,11.57
2022-09-30T10:12:36.820Z,11.60
2022-09-30T10:15:19.193Z,11.60
2022-09-30T10:17:51.907Z,11.61
2022-09-30T10:20:25.044Z,11.93
2022-09-30T10:23:02.018Z,11.94
2022-09-30T10:25:30.872Z,12.01
2022-09-30T10:28:00.130Z,12.07
2022-09-30T10:30:41.986Z,12.13
2022-09-30T10:33:20.336Z,12.14
2022-09-30T10:36:02.584Z,12.17
2022-09-30T10:38:32.047Z,12.36
2022-09-30T10:41:00.161Z,12.49
2022-09-30T10:43:31.461Z,12.63
2022-09-30T10:46:24.573Z,12.80
2022-09-30T10:48:53.760Z,12.88
2022-09-30T10:51:25.925Z,12.89
2022-09-30T10:53:53.695Z,13.11
2022-09-30T10:56:42.142Z,13.19
2022-09-30T10:59:19.739Z,13.12
2022-09-30T11:01:53.697Z,13.15
2022-09-30T11:04:28.423Z,13.10
2022-09-30T11:07:02.198Z,13.12
2022-09-30T11:09:35.717Z,13.40
2022-09-30T11:12:10.220Z,13.60
2022-09-30T11:14:41.719Z,13.66
2022-09-30T11:17:23.615Z,13.71
2022-09-30T11:19:55.286Z,13.70
2022-09-30T11:22:31.179Z,13.65
2022-09-30T11:24:58.856Z,13.74
2022-09-30T11:27:35.612Z,13.90
2022-09-30T11:30:08.839Z,13.93
2022-09-30T11:32:50.413Z,14.09
2022-09-30T11:35:29.543Z,14.12
2022-09-30T11:38:17.457Z,14.15
2022-09-30T11:40:50.644Z,14.22
2022-09-30T11:43:26.347Z,14.30
2022-09-30T11:46:19.302Z,14.28
2022-09-30T11:48:58.248Z,14.48
2022-09-30T11:51:32.694Z,14.52
2022-09-30T11:54:12.270Z,14.51
2022-09-30T11:56:45.653Z,14.51
2022-09-30T11:59:16.726Z,14.58
2022-09-30T12:01:47.282Z,14.60
2022-09-30T12:04:19.397Z,14.69
2022-09-30T12:06:52.634Z,14.83
2022-09-30T12:09:24.630Z,15.07
2022-09-30T12:11:57.178Z,15.27
2022-09-30T12:14:30.626Z,15.28
2022-09-30T12:16:59.791Z,15.26
2022-09-30T12:19:32.290Z,15.27
2022-09-30T12:22:05.557Z,15.19
2022-09-30T12:24:37.208Z,15.18
2022-09-30T12:27:05.411Z,15.35
2022-09-30T12:29:53.865Z,15.23
2022-09-30T12:32:43.524Z,15.23
2022-09-30T12:35:29.396Z,15.27
2022-09-30T12:38:11.609Z,15.41
2022-09-30T12:40:58.384Z,15.42
2022-09-30T12:43:48.214Z,15.44
2022-09-30T12:46:18.135Z,15.40
2022-09-30T12:48:47.938Z,15.31
2022-09-30T12:51:27.208Z,15.17
2022-09-30T12:54:00.439Z,15.09
2022-09-30T12:56:30.372Z,14.90
2022-09-30T12:59:01.330Z,14.81
2022-09-30T13:01:30.277Z,14.76
2022-09-30T13:04:18.656Z,14.69
2022-09-30T13:07:14.912Z,14.75
2022-09-30T13:09:58.780Z,14.78
2022-09-30T13:12:28.300Z,14.80
2022-09-30T13:15:27.916Z,14.90
2022-09-30T13:17:55.556Z,14.89
2022-09-30T13:20:50.622Z,15.09
2022-09-30T13:23:37.861Z,15.12
2022-09-30T13:26:07.109Z,15.22
2022-09-30T13:28:39.095Z,15.20
2022-09-30T13:31:15.553Z,15.23
2022-09-30T13:33:48.299Z,15.31
2022-09-30T13:36:20.321Z,15.40
2022-09-30T13:39:07.690Z,15.65
2022-09-30T13:41:37.496Z,15.66
2022-09-30T13:44:10.082Z,15.50
2022-09-30T13:46:43.248Z,15.56
2022-09-30T13:49:14.947Z,15.68
2022-09-30T13:51:42.657Z,15.68
2022-09-30T13:54:15.547Z,15.78
2022-09-30T13:56:44.079Z,15.78
2022-09-30T13:59:21.764Z,15.86
2022-09-30T14:02:04.920Z,15.87
2022-09-30T14:04:47.319Z,15.83
2022-09-30T14:07:18.902Z,15.81
2022-09-30T14:09:58.996Z,15.83
2022-09-30T14:12:37.309Z,15.77
2022-09-30T14:15:25.716Z,15.86
2022-09-30T14:18:07.480Z,15.83
2022-09-30T14:20:43.859Z,15.85
2022-09-30T14:23:15.458Z,15.73
2022-09-30T14:25:52.305Z,15.63
2022-09-30T14:28:24.669Z,15.64
2022-09-30T14:31:10.077Z,15.69
2022-09-30T14:33:39.518Z,15.64
2022-09-30T14:36:13.781Z,15.56
2022-09-30T14:38:44.471Z,15.73
2022-09-30T14:41:18.314Z,15.78
2022-09-30T14:43:47.125Z,15.79
2022-09-30T14:46:24.952Z,15.89
2022-09-30T14:48:52.980Z,15.84
2022-09-30T14:51:23.683Z,15.86
2022-09-30T14:53:56.075Z,15.84
2022-09-30T14:56:30.571Z,15.71
2022-09-30T14:58:59.696Z,15.71
2022-09-30T15:01:30.786Z,15.71
2022-09-30T15:04:00.833Z,15.73
2022-09-30T15:06:30.498Z,15.63
2022-09-30T15:09:03.271Z,15.63
2022-09-30T15:11:37.203Z,15.65
2022-09-30T15:14:09.915Z,15.60
2022-09-30T15:16:46.947Z,15.54
2022-09-30T15:19:19.314Z,15.46
2022-09-30T15:21:49.030Z,15.43
2022-09-30T15:24:18.232Z,15.32
2022-09-30T15:26:49.096Z,15.29
2022-09-30T15:29:17.666Z,15.36
2022-09-30T15:31:47.143Z,15.39
2022-09-30T15:34:20.469Z,15.40
2022-09-30T15:37:04.481Z,15.23
2022-09-30T15:39:47.556Z,15.16
2022-09-30T15:42:30.234Z,15.08
2022-09-30T15:44:59.533Z,15.09
2022-09-30T15:47:27.649Z,15.02
2022-09-30T15:49:55.428Z,14.94
2022-09-30T15:52:33.405Z,14.86
2022-09-30T15:55:01.084Z,14.82
2022-09-30T15:57:47.757Z,14.79
2022-09-30T16:00:38.311Z,14.72
2022-09-30T16:03:32.973Z,14.71
2022-09-30T16:06:08.682Z,14.79
2022-09-30T16:08:42.881Z,14.70
2022-09-30T16:11:10.645Z,14.55
2022-09-30T16:13:43.569Z,14.48
2022-09-30T16:16:19.621Z,14.49
2022-09-30T16:18:47.402Z,14.52
2022-09-30T16:21:30.440Z,14.55
2022-09-30T16:23:58.072Z,14.54
2022-09-30T16:26:30.761Z,14.47
2022-09-30T16:29:05.838Z,14.28
2022-09-30T16:31:36.074Z,14.26
2022-09-30T16:34:03.768Z,14.21
2022-09-30T16:36:31.787Z,14.18
2022-09-30T16:38:59.614Z,14.07
2022-09-30T16:41:27.225Z,13.99
2022-09-30T16:43:54.782Z,13.97
2022-09-30T16:46:23.797Z,13.95
2022-09-30T16:48:51.347Z,13.83
2022-09-30T16:51:19.079Z,13.75
2022-09-30T16:53:47.841Z,13.77
2022-09-30T16:56:17.118Z,13.65
2022-09-30T16:58:45.149Z,13.55
2022-09-30T17:01:18.315Z,13.48
2022-09-30T17:03:47.485Z,13.31
2022-09-30T17:06:15.171Z,13.26
2022-09-30T17:08:42.745Z,13.17
2022-09-30T17:11:10.999Z,13.14
2022-09-30T17:13:38.654Z,13.06
2022-09-30T17:16:06.668Z,12.91
2022-09-30T17:18:34.412Z,12.85
2022-09-30T17:21:03.433Z,12.83
2022-09-30T17:23:31.012Z,12.65
2022-09-30T17:25:58.643Z,12.51
2022-09-30T17:28:26.493Z,12.35
2022-09-30T17:30:54.747Z,12.32
2022-09-30T17:33:22.529Z,12.18
2022-09-30T17:36:00.160Z,12.17
2022-09-30T17:38:29.868Z,12.09
2022-09-30T17:41:15.150Z,12.02
2022-09-30T17:43:42.789Z,11.93
2022-09-30T17:46:10.415Z,11.86
2022-09-30T17:48:39.345Z,11.82
2022-09-30T17:51:09.522Z,11.77
2022-09-30T17:53:39.746Z,11.58
2022-09-30T17:56:10.165Z,11.39
2022-09-30T17:58:38.128Z,11.22
2022-09-30T18:01:07.793Z,11.28
2022-09-30T18:03:35.716Z,11.17
2022-09-30T18:06:03.484Z,11.25
2022-09-30T18:08:31.125Z,11.19
2022-09-30T18:11:00.015Z,10.98
2022-09-30T18:13:28.518Z,10.96
2022-09-30T18:15:59.568Z,10.93
2022-09-30T18:18:27.263Z,10.83
2022-09-30T18:20:54.825Z,10.82
2022-09-30T18:23:22.456Z,10.82
2022-09-30T18:25:54.309Z,10.79
2022-09-30T18:28:23.426Z,10.73
2022-09-30T18:30:51.055Z,10.74
2022-09-30T18:33:21.340Z,10.80
2022-09-30T18:35:51.437Z,10.74
2022-09-30T18:38:19.556Z,10.65
2022-09-30T18:40:47.143Z,10.59
2022-09-30T18:43:15.169Z,10.57
2022-09-30T18:45:44.257Z,10.57
2022-09-30T18:48:11.982Z,10.64
2022-09-30T18:50:39.638Z,10.40
2022-09-30T18:53:09.934Z,10.55
2022-09-30T18:55:38.254Z,10.46
2022-09-30T18:58:06.343Z,10.33
2022-09-30T19:00:34.094Z,10.31
2022-09-30T19:03:03.111Z,10.32
2022-09-30T19:05:30.790Z,10.33
2022-09-30T19:07:59.304Z,10.36
2022-09-30T19:10:26.850Z,10.32
2022-09-30T19:12:54.452Z,10.26
2022-09-30T19:15:23.471Z,10.25
2022-09-30T19:17:53.648Z,10.24
2022-09-30T19:20:22.981Z,10.17
2022-09-30T19:22:51.881Z,10.19
2022-09-30T19:25:19.614Z,10.17
2022-09-30T19:27:49.422Z,9.99
2022-09-30T19:30:17.065Z,9.97
2022-09-30T19:32:44.688Z,9.94
2022-09-30T19:35:13.569Z,9.97
2022-09-30T19:37:55.623Z,9.90
2022-09-30T19:40:25.290Z,9.85
2022-09-30T19:42:52.888Z,9.78
2022-09-30T19:45:25.921Z,9.75
2022-09-30T19:47:53.952Z,9.69
2022-09-30T19:50:21.550Z,9.71
2022-09-30T19:52:56.766Z,9.61
2022-09-30T19:55:25.580Z,9.57
2022-09-30T19:57:53.239Z,9.61
2022-09-30T20:00:20.820Z,9.42
2022-09-30T20:02:48.527Z,9.42
2022-09-30T20:05:18.261Z,9.42
2022-09-30T20:07:45.808Z,9.39
2022-09-30T20:10:14.819Z,9.39
2022-09-30T20:12:43.506Z,9.37
2022-09-30T20:15:29.333Z,9.36
2022-09-30T20:17:56.996Z,9.30
2022-09-30T20:20:37.080Z,9.33
2022-09-30T20:23:04.871Z,9.26
2022-09-30T20:25:35.125Z,9.32
2022-09-30T20:28:03.979Z,9.31
2022-09-30T20:30:32.007Z,9.22
2022-09-30T20:32:59.814Z,9.39
2022-09-30T20:35:27.459Z,9.41
2022-09-30T20:37:55.072Z,9.63
2022-09-30T20:40:23.177Z,9.66
2022-09-30T20:42:52.725Z,9.53
2022-09-30T20:45:20.348Z,9.43
2022-09-30T20:47:47.983Z,9.37
2022-09-30T20:50:34.742Z,9.16
2022-09-30T20:53:03.841Z,9.07
2022-09-30T20:55:31.463Z,9.04
2022-09-30T20:58:00.426Z,9.22
2022-09-30T21:00:28.224Z,9.32
2022-09-30T21:02:57.182Z,9.43
2022-09-30T21:05:24.822Z,9.26
2022-09-30T21:07:53.158Z,9.11
2022-09-30T21:10:21.307Z,9.27
2022-09-30T21:12:49.847Z,9.18
2022-09-30T21:15:19.089Z,9.21
2022-09-30T21:17:46.799Z,9.35
2022-09-30T21:20:14.569Z,9.36
2022-09-30T21:22:42.870Z,9.39
2022-09-30T21:25:13.009Z,9.41
2022-09-30T21:27:41.056Z,9.40
2022-09-30T21:30:10.855Z,9.38
2022-09-30T21:32:42.943Z,9.22
2022-09-30T21:35:10.801Z,9.42
2022-09-30T21:37:38.713Z,9.31
2022-09-30T21:40:07.112Z,9.35
2022-09-30T21:42:53.747Z,9.25
2022-09-30T21:45:34.569Z,9.24
2022-09-30T21:48:34.503Z,9.15
2022-09-30T21:51:07.805Z,9.08
2022-09-30T21:53:46.950Z,9.11
2022-09-30T21:56:14.720Z,9.13
2022-09-30T21:58:42.358Z,9.12
2022-09-30T22:01:11.166Z,9.10
2022-09-30T22:03:40.173Z,9.00
2022-09-30T22:06:09.156Z,8.87
2022-09-30T22:08:39.945Z,8.72
2022-09-30T22:11:13.474Z,8.70
2022-09-30T22:13:43.677Z,8.62
2022-09-30T22:16:11.527Z,8.60
2022-09-30T22:18:40.513Z,8.38
2022-09-30T22:21:10.638Z,8.32
2022-09-30T22:23:38.427Z,8.30
2022-09-30T22:26:11.101Z,8.26
2022-09-30T22:28:41.616Z,8.27
2022-09-30T22:31:13.777Z,8.27
2022-09-30T22:34:00.632Z,8.37
2022-09-30T22:36:47.993Z,8.16
2022-09-30T22:39:15.610Z,8.03
2022-09-30T22:41:43.387Z,8.00
2022-09-30T22:44:11.054Z,7.96
2022-09-30T22:46:39.389Z,7.97
2022-09-30T22:49:08.336Z,7.90
2022-09-30T22:51:36.362Z,7.98
2022-09-30T22:54:20.206Z,8.02
2022-09-30T22:56:50.352Z,8.23
2022-09-30T22:59:18.690Z,8.13
2022-09-30T23:01:46.763Z,8.12
2022-09-30T23:04:26.545Z,8.08
2022-09-30T23:06:55.699Z,7.92
2022-09-30T23:09:23.615Z,7.85
2022-09-30T23:11:53.567Z,7.97
2022-09-30T23:14:21.446Z,7.94
2022-09-30T23:16:49.500Z,7.96
2022-09-30T23:19:18.473Z,8.03
2022-09-30T23:21:45.994Z,8.13
2022-09-30T23:24:13.515Z,8.00
2022-09-30T23:26:41.201Z,8.04
2022-09-30T23:29:12.084Z,7.92
2022-09-30T23:31:39.907Z,7.93
2022-09-30T23:34:07.657Z,8.03
2022-09-30T23:36:37.764Z,8.12
2022-09-30T23:39:08.130Z,8.19
2022-09-30T23:41:36.028Z,8.19
2022-09-30T23:44:04.388Z,8.11
2022-09-30T23:46:32.003Z,8.12
2022-09-30T23:48:59.781Z,8.14
2022-09-30T23:51:27.290Z,8.15
2022-09-30T23:53:56.173Z,8.03
2022-09-30T23:56:23.942Z,8.25
2022-09-30T23:58:51.467Z,8.30
